Buffalo Range, Zimbabwe

6:30 AM CAT on September 25, 2016 (GMT +0200)
Buffalo Range | | Change Station

Elev 1411 ft 21.01 °S, 31.58 °E | Updated 1 hour ago

Clear
Clear
66 °F
Feels Like 66 °F
N
0
Wind Variable Wind from North

Today
High -- | Low -- °F
--% Chance of Precip.
Yesterday
High -- | Low -- °F
Precip. -- in
Pressure 30.06 in
Visibility -9999.0 miles
Clouds
Dew Point 59 °F
Humidity 78%
Rainfall 0.00 in
Snow Depth Not available.
5:40 AM 5:50 PM
Waning Crescent, 31% visible
METAR FVCZ 250300Z 00000KT CAVOK 19/15 Q1018
Pressure 30.06 in
Visibility -9999.0 miles
Clouds
Dew Point 59 °F
Humidity 78%
Rainfall 0.00 in
Snow Depth Not available.
5:40 AM 5:50 PM
Waning Crescent, 31% visible
METAR FVCZ 250300Z 00000KT CAVOK 19/15 Q1018

10-Day Weather Forecast

No radar image for this location.
×

Almanac

Astronomy

Sep. 25, 2016 Rise Set
Actual Time
Civil Twilight
Nautical Twilight
Astronomical Twilight
Moon
Length of Visible Light
Length of Day
Tomorrow will be .
, % of the Moon is Illuminated

Today's Extremes

Country Highs Country Lows

Community

WunderPhotos

Upload Photos

1,941,545 photos uploaded!

WunderBlog® & News

Nearby

Air Quality

  Air Quality AQ Index Pollutant
Not available.

Snow Depth

Station Depth Elevation

Earthquake Activity

City Distance Mag. Time & Date
Minimum magnitude displayed is 2.5.

Coastal Water Temperatures

Place Temperature

Stations

Nearby Weather Stations

Station Location Temp. Windchill Dew Point Humidity Wind Precip. Elev Updated Type